createdAt,value
2017-12-25T00:01:40.494Z,39.33
2017-12-25T00:04:08.050Z,46.43
2017-12-25T00:06:35.620Z,44.83
2017-12-25T00:09:03.218Z,54.57
2017-12-25T00:11:30.770Z,51.53
2017-12-25T00:13:58.680Z,51.73
2017-12-25T00:16:26.250Z,41.40
2017-12-25T00:18:53.811Z,26.63
2017-12-25T00:21:21.636Z,18.50
2017-12-25T00:23:49.184Z,14.23
2017-12-25T00:26:16.792Z,6.70
2017-12-25T00:28:44.347Z,11.27
2017-12-25T00:31:12.536Z,14.10
2017-12-25T00:33:40.106Z,34.10
2017-12-25T00:36:07.681Z,23.80
2017-12-25T00:38:35.661Z,20.33
2017-12-25T00:41:03.207Z,29.73
2017-12-25T00:43:30.998Z,29.13
2017-12-25T00:45:58.565Z,29.73
2017-12-25T00:48:26.247Z,25.50
2017-12-25T00:50:53.866Z,21.23
2017-12-25T00:53:21.407Z,18.57
2017-12-25T00:55:48.980Z,21.77
2017-12-25T00:58:16.549Z,22.10
2017-12-25T01:00:44.151Z,19.07
2017-12-25T01:03:11.777Z,16.47
2017-12-25T01:05:39.315Z,12.17
2017-12-25T01:08:06.865Z,10.83
2017-12-25T01:10:34.429Z,12.23
2017-12-25T01:13:02.210Z,16.30
2017-12-25T01:15:30.030Z,18.07
2017-12-25T01:17:57.750Z,13.97
2017-12-25T01:20:25.358Z,8.33
2017-12-25T01:22:52.918Z,9.63
2017-12-25T01:25:20.470Z,8.50
2017-12-25T01:27:48.077Z,6.70
2017-12-25T01:30:15.638Z,6.40
2017-12-25T01:32:43.194Z,5.97
2017-12-25T01:35:10.972Z,6.33
2017-12-25T01:37:38.524Z,5.50
2017-12-25T01:40:06.145Z,7.90
2017-12-25T01:42:33.894Z,8.10
2017-12-25T01:45:01.451Z,8.03
2017-12-25T01:47:29.051Z,20.97
2017-12-25T01:49:56.624Z,13.50
2017-12-25T01:52:24.497Z,16.90
2017-12-25T01:54:52.208Z,18.53
2017-12-25T02:00:55.624Z,7.70
2017-12-25T02:03:23.254Z,9.77
2017-12-25T02:06:00.602Z,6.63
2017-12-25T02:08:34.110Z,16.93
2017-12-25T02:11:01.917Z,13.97
2017-12-25T02:13:29.736Z,12.83
2017-12-25T02:15:57.554Z,22.23
2017-12-25T02:18:25.117Z,18.23
2017-12-25T02:20:52.870Z,11.10
2017-12-25T02:23:20.421Z,9.83
2017-12-25T02:25:48.228Z,10.73
2017-12-25T02:28:16.045Z,12.07
2017-12-25T02:30:43.597Z,52.50
2017-12-25T02:33:11.381Z,37.33
2017-12-25T02:35:39.004Z,34.03
2017-12-25T02:38:06.624Z,28.77
2017-12-25T02:40:34.189Z,30.77
2017-12-25T02:43:01.953Z,22.90
2017-12-25T02:45:29.526Z,20.67
2017-12-25T02:47:57.081Z,28.40
2017-12-25T02:50:24.695Z,23.97
2017-12-25T02:52:52.263Z,26.20
2017-12-25T02:55:19.922Z,30.83
2017-12-25T02:57:47.486Z,33.07
2017-12-25T03:00:15.276Z,28.13
2017-12-25T03:02:42.894Z,30.27
2017-12-25T03:05:10.466Z,25.50
2017-12-25T03:07:38.230Z,25.73
2017-12-25T03:10:05.806Z,21.83
2017-12-25T03:12:33.362Z,23.27
2017-12-25T03:15:00.975Z,20.90
2017-12-25T03:17:28.704Z,19.33
2017-12-25T03:19:56.264Z,19.40
2017-12-25T03:22:24.003Z,19.30
2017-12-25T03:24:51.571Z,18.00
2017-12-25T03:27:19.218Z,16.50
2017-12-25T03:29:46.774Z,20.53
2017-12-25T03:32:14.336Z,23.97
2017-12-25T03:34:42.228Z,35.50
2017-12-25T03:37:10.046Z,25.23
2017-12-25T03:39:37.663Z,23.40
2017-12-25T03:42:05.231Z,22.53
2017-12-25T03:44:32.793Z,24.20
2017-12-25T03:47:00.366Z,30.10
2017-12-25T03:49:28.135Z,47.30
2017-12-25T03:51:55.762Z,38.77
2017-12-25T03:54:23.571Z,41.27
2017-12-25T03:56:51.211Z,50.57
2017-12-25T03:59:18.778Z,33.00
2017-12-25T04:01:46.338Z,47.10
2017-12-25T04:04:13.960Z,41.00
2017-12-25T04:06:41.517Z,42.53
2017-12-25T04:09:09.280Z,105.37
2017-12-25T04:11:36.860Z,85.47
2017-12-25T04:14:04.500Z,54.00
2017-12-25T04:16:32.333Z,50.17
2017-12-25T04:18:59.908Z,49.13
2017-12-25T04:21:27.669Z,41.67
2017-12-25T04:23:55.230Z,33.47
2017-12-25T04:26:22.794Z,22.77
2017-12-25T04:28:50.623Z,28.03
2017-12-25T04:31:18.168Z,38.63
2017-12-25T04:33:45.725Z,34.93
2017-12-25T04:36:13.477Z,33.23
2017-12-25T04:38:41.294Z,35.00
2017-12-25T04:41:08.992Z,28.63
2017-12-25T04:43:36.545Z,23.43
2017-12-25T04:46:04.102Z,22.43
2017-12-25T04:48:31.678Z,55.10
2017-12-25T04:50:59.235Z,43.73
2017-12-25T04:53:27.104Z,35.03
2017-12-25T04:55:54.679Z,32.70
2017-12-25T04:58:22.440Z,39.83
2017-12-25T05:00:50.256Z,32.30
2017-12-25T05:03:17.829Z,27.07
2017-12-25T05:05:45.583Z,30.50
2017-12-25T05:08:13.150Z,32.43
2017-12-25T05:10:40.696Z,32.03
2017-12-25T05:13:08.273Z,22.57
2017-12-25T05:15:35.838Z,28.33
2017-12-25T05:18:03.681Z,25.60
2017-12-25T05:20:31.399Z,36.37
2017-12-25T05:22:59.117Z,37.07
2017-12-25T05:25:26.671Z,34.80
2017-12-25T05:27:54.454Z,29.27
2017-12-25T05:30:22.273Z,25.83
2017-12-25T05:32:49.991Z,21.50
2017-12-25T05:35:17.558Z,22.33
2017-12-25T05:37:45.297Z,29.57
2017-12-25T05:40:12.854Z,53.87
2017-12-25T05:42:40.663Z,44.57
2017-12-25T05:45:08.220Z,65.50
2017-12-25T05:47:35.781Z,48.23
2017-12-25T05:50:03.358Z,47.37
2017-12-25T05:52:30.923Z,48.70
2017-12-25T05:54:58.539Z,66.87
2017-12-25T05:57:26.106Z,66.93
2017-12-25T05:59:53.666Z,62.77
2017-12-25T06:02:21.240Z,51.53
2017-12-25T06:04:49.023Z,51.60
2017-12-25T06:07:16.840Z,32.83
2017-12-25T06:09:44.462Z,27.63
2017-12-25T06:12:12.183Z,35.43
2017-12-25T06:14:39.754Z,106.00
2017-12-25T06:17:07.306Z,78.03
2017-12-25T06:19:34.942Z,78.33
2017-12-25T06:22:02.556Z,141.37
2017-12-25T06:24:30.369Z,81.97
2017-12-25T06:26:57.932Z,82.40
2017-12-25T06:29:25.510Z,71.67
2017-12-25T06:31:53.280Z,44.00
2017-12-25T06:34:20.995Z,36.47
2017-12-25T06:36:48.736Z,30.30
2017-12-25T06:39:16.645Z,38.73
2017-12-25T06:41:44.208Z,34.37
2017-12-25T06:44:11.833Z,30.10
2017-12-25T06:46:39.628Z,57.53
2017-12-25T06:49:07.349Z,60.40
2017-12-25T06:51:34.964Z,51.37
2017-12-25T06:54:02.530Z,55.07
2017-12-25T06:56:30.170Z,45.80
2017-12-25T06:58:57.721Z,53.53
2017-12-25T07:01:25.268Z,58.97
2017-12-25T07:03:52.836Z,54.57
2017-12-25T07:06:20.449Z,51.57
2017-12-25T07:08:48.110Z,45.27
2017-12-25T07:11:15.933Z,48.23
2017-12-25T07:13:43.727Z,54.80
2017-12-25T07:16:11.316Z,47.97
2017-12-25T07:18:39.040Z,53.00
2017-12-25T07:21:06.881Z,44.97
2017-12-25T07:23:34.438Z,46.07
2017-12-25T07:26:02.217Z,42.23
2017-12-25T07:28:29.935Z,52.03
2017-12-25T07:30:57.654Z,58.73
2017-12-25T07:33:25.363Z,662.37
2017-12-25T07:35:52.930Z,502.83
2017-12-25T07:38:20.547Z,61.47
2017-12-25T07:40:48.184Z,56.47
2017-12-25T07:43:15.764Z,47.67
2017-12-25T07:45:43.378Z,46.10
2017-12-25T07:48:11.179Z,34.03
2017-12-25T07:50:38.747Z,31.13
2017-12-25T07:53:06.335Z,175.10
2017-12-25T07:55:33.902Z,32.90
2017-12-25T07:58:01.757Z,32.30
2017-12-25T08:00:29.339Z,165.93
2017-12-25T08:02:56.902Z,27.90
2017-12-25T08:05:24.483Z,28.10
2017-12-25T08:07:52.064Z,29.87
2017-12-25T08:10:19.748Z,28.03
2017-12-25T08:12:47.348Z,24.67
2017-12-25T08:15:14.916Z,18.90
2017-12-25T08:17:42.498Z,21.47
2017-12-25T08:20:10.071Z,25.80
2017-12-25T08:22:37.701Z,21.80
2017-12-25T08:25:05.415Z,22.23
2017-12-25T08:27:33.046Z,26.67
2017-12-25T08:30:00.671Z,20.30
2017-12-25T08:32:28.199Z,20.03
2017-12-25T08:34:55.825Z,14.97
2017-12-25T08:37:23.424Z,21.20
2017-12-25T08:39:50.999Z,17.63
2017-12-25T08:42:18.629Z,17.60
2017-12-25T08:44:46.173Z,16.63
2017-12-25T08:47:13.823Z,27.60
2017-12-25T08:49:41.454Z,24.70
2017-12-25T08:52:09.043Z,27.37
2017-12-25T08:54:36.617Z,16.30
2017-12-25T08:57:04.183Z,18.23
2017-12-25T08:59:31.870Z,20.57
2017-12-25T09:01:59.449Z,13.33
2017-12-25T09:04:27.045Z,23.13
2017-12-25T09:06:54.826Z,14.43
2017-12-25T09:09:22.395Z,19.03
2017-12-25T09:11:50.151Z,15.33
2017-12-25T09:14:17.770Z,22.37
2017-12-25T09:16:45.326Z,9.70
2017-12-25T09:19:12.897Z,9.50
2017-12-25T09:21:40.445Z,6.17
2017-12-25T09:24:08.054Z,6.93
2017-12-25T09:26:35.606Z,4.40
2017-12-25T09:29:03.159Z,5.40
2017-12-25T09:31:30.746Z,3.33
2017-12-25T09:33:58.311Z,3.83
2017-12-25T09:36:26.056Z,4.03
2017-12-25T09:38:53.618Z,4.23
2017-12-25T09:41:21.238Z,5.97
2017-12-25T09:43:48.862Z,2.20
2017-12-25T09:46:16.490Z,3.43
2017-12-25T09:48:44.167Z,6.43
2017-12-25T09:51:11.726Z,2.70
2017-12-25T09:53:39.278Z,2.97
2017-12-25T09:56:06.851Z,2.87
2017-12-25T09:58:34.483Z,4.23
2017-12-25T10:01:02.166Z,4.10
2017-12-25T10:03:29.734Z,3.13
2017-12-25T10:05:57.362Z,2.67
2017-12-25T10:08:25.061Z,5.23
2017-12-25T10:10:52.631Z,10.77
2017-12-25T10:13:20.245Z,7.73
2017-12-25T10:15:47.946Z,4.83
2017-12-25T10:18:15.503Z,5.10
2017-12-25T10:20:43.046Z,8.37
2017-12-25T10:23:10.593Z,4.57
2017-12-25T10:25:38.204Z,3.10
2017-12-25T10:28:05.758Z,7.17
2017-12-25T10:30:33.319Z,6.40
2017-12-25T10:33:00.896Z,8.07
2017-12-25T10:35:28.466Z,6.10
2017-12-25T10:37:56.140Z,5.10
2017-12-25T10:40:23.695Z,1.93
2017-12-25T10:42:51.307Z,3.77
2017-12-25T10:45:18.866Z,7.10
2017-12-25T10:47:46.493Z,3.10
2017-12-25T10:50:14.115Z,2.50
2017-12-25T10:52:41.786Z,5.17
2017-12-25T10:55:09.338Z,2.13
2017-12-25T10:57:36.988Z,6.90
2017-12-25T11:00:04.631Z,6.83
2017-12-25T11:02:32.242Z,8.30
2017-12-25T11:04:59.798Z,4.03
2017-12-25T11:07:27.367Z,3.33
2017-12-25T11:09:54.986Z,5.40
2017-12-25T11:12:22.574Z,3.73
2017-12-25T11:14:50.272Z,2.77
2017-12-25T11:17:17.895Z,3.10
2017-12-25T11:19:46.391Z,3.47
2017-12-25T11:22:14.024Z,3.87
2017-12-25T11:24:41.594Z,11.87
2017-12-25T11:27:09.207Z,4.00
2017-12-25T11:29:36.826Z,4.27
2017-12-25T11:32:04.403Z,8.87
2017-12-25T11:34:32.119Z,5.67
2017-12-25T11:36:59.675Z,4.33
2017-12-25T11:39:27.278Z,3.63
2017-12-25T11:41:54.831Z,2.47
2017-12-25T11:44:22.390Z,2.97
2017-12-25T11:46:50.019Z,3.53
2017-12-25T11:49:17.585Z,4.57
2017-12-25T11:51:45.300Z,7.27
2017-12-25T11:54:12.859Z,7.23
2017-12-25T11:56:40.493Z,1.93
2017-12-25T11:59:08.063Z,4.80
2017-12-25T12:01:35.674Z,8.27
2017-12-25T12:04:03.383Z,7.77
2017-12-25T12:06:30.999Z,8.93
2017-12-25T12:08:58.574Z,5.60
2017-12-25T12:11:26.148Z,3.20
2017-12-25T12:13:53.704Z,3.97
2017-12-25T12:16:21.345Z,6.73
2017-12-25T12:18:48.912Z,3.20
2017-12-25T12:21:16.543Z,3.70
2017-12-25T12:23:44.640Z,1.87
2017-12-25T12:26:12.270Z,2.67
2017-12-25T12:28:39.888Z,3.23
2017-12-25T12:31:07.437Z,2.37
2017-12-25T12:33:35.002Z,4.03
2017-12-25T12:36:02.573Z,2.30
2017-12-25T12:38:30.195Z,5.57
2017-12-25T12:40:57.802Z,4.40
2017-12-25T12:43:25.362Z,6.17
2017-12-25T12:45:52.929Z,5.43
2017-12-25T12:48:20.552Z,4.00
2017-12-25T12:50:48.174Z,3.00
2017-12-25T12:53:15.795Z,3.83
2017-12-25T12:55:43.372Z,6.27
2017-12-25T12:58:11.002Z,7.30
2017-12-25T13:00:38.551Z,8.67
2017-12-25T13:03:06.116Z,3.73
2017-12-25T13:05:33.746Z,7.63
2017-12-25T13:08:01.289Z,7.00
2017-12-25T13:10:28.915Z,12.83
2017-12-25T13:12:56.619Z,4.07
2017-12-25T13:15:24.178Z,5.93
2017-12-25T13:17:51.856Z,2.63
2017-12-25T13:20:19.422Z,6.20
2017-12-25T13:22:46.998Z,3.77
2017-12-25T13:25:14.563Z,10.87
2017-12-25T13:27:42.167Z,4.10
2017-12-25T13:30:09.865Z,4.33
2017-12-25T13:32:37.503Z,4.17
2017-12-25T13:35:05.126Z,4.17
2017-12-25T13:37:32.755Z,3.40
2017-12-25T13:40:00.325Z,21.00
2017-12-25T13:42:28.011Z,29.50
2017-12-25T13:44:55.620Z,7.63
2017-12-25T13:47:23.179Z,8.17
2017-12-25T13:49:50.750Z,7.73
2017-12-25T13:52:18.315Z,5.87
2017-12-25T13:54:45.934Z,6.30
2017-12-25T13:57:13.555Z,11.97
2017-12-25T13:59:41.118Z,6.50
2017-12-25T14:02:08.687Z,3.90
2017-12-25T14:04:36.241Z,4.63
2017-12-25T14:07:03.810Z,6.83
2017-12-25T14:09:31.383Z,9.97
2017-12-25T14:11:58.946Z,6.30
2017-12-25T14:14:26.594Z,34.20
2017-12-25T14:16:54.182Z,26.13
2017-12-25T14:19:21.783Z,37.53
2017-12-25T14:21:49.429Z,29.73
2017-12-25T14:24:17.010Z,60.37
2017-12-25T14:26:44.580Z,83.63
2017-12-25T14:29:12.149Z,156.77
2017-12-25T14:31:39.814Z,145.60
2017-12-25T14:34:07.386Z,59.43
2017-12-25T14:36:34.931Z,61.00
2017-12-25T14:39:02.583Z,154.83
2017-12-25T14:41:30.159Z,521.17
2017-12-25T14:43:57.751Z,259.30
2017-12-25T14:46:25.342Z,121.33
2017-12-25T14:48:53.018Z,78.60
2017-12-25T14:51:20.636Z,63.60
2017-12-25T14:53:48.273Z,75.73
2017-12-25T14:56:15.841Z,40.20
2017-12-25T14:58:43.406Z,54.93
2017-12-25T15:01:11.038Z,77.90
2017-12-25T15:03:38.608Z,78.63
2017-12-25T15:06:06.196Z,58.27
2017-12-25T15:08:33.771Z,86.30
2017-12-25T15:11:01.344Z,62.90
2017-12-25T15:13:28.903Z,67.90
2017-12-25T15:15:56.512Z,47.73
2017-12-25T15:18:24.083Z,85.20
2017-12-25T15:20:51.650Z,72.50
2017-12-25T15:23:19.236Z,89.37
2017-12-25T15:25:46.809Z,41.40
2017-12-25T15:28:14.523Z,82.70
2017-12-25T15:30:42.141Z,71.00
2017-12-25T15:33:09.774Z,157.23
2017-12-25T15:35:37.410Z,138.07
2017-12-25T15:38:04.983Z,97.03
2017-12-25T15:40:32.610Z,72.77
2017-12-25T15:43:00.186Z,123.57
2017-12-25T15:45:27.754Z,78.77
2017-12-25T15:47:55.375Z,45.23
2017-12-25T15:50:22.947Z,40.93
2017-12-25T15:52:50.521Z,25.43
2017-12-25T15:55:18.098Z,66.30
2017-12-25T15:57:45.687Z,245.33
2017-12-25T16:00:13.275Z,111.50
2017-12-25T16:02:40.915Z,210.17
2017-12-25T16:05:08.487Z,174.23
2017-12-25T16:07:36.132Z,963.67
2017-12-25T16:10:03.751Z,297.83
2017-12-25T16:12:31.404Z,344.43
2017-12-25T16:14:59.010Z,526.33
2017-12-25T16:17:26.643Z,293.37
2017-12-25T16:19:54.235Z,253.63
2017-12-25T16:22:21.876Z,199.03
2017-12-25T16:24:49.516Z,224.93
2017-12-25T16:27:17.088Z,217.47
2017-12-25T16:29:44.661Z,210.77
2017-12-25T16:32:12.258Z,150.27
2017-12-25T16:34:39.826Z,129.90
2017-12-25T16:37:07.467Z,114.07
2017-12-25T16:39:35.038Z,67.93
2017-12-25T16:42:02.617Z,48.50
2017-12-25T16:44:30.246Z,54.40
2017-12-25T16:46:57.822Z,168.57
2017-12-25T16:49:25.394Z,148.20
2017-12-25T16:51:52.986Z,116.70
2017-12-25T16:54:20.559Z,89.63
2017-12-25T16:56:48.122Z,132.40
2017-12-25T16:59:15.682Z,137.97
2017-12-25T17:01:43.315Z,126.07
2017-12-25T17:04:10.995Z,110.50
2017-12-25T17:06:38.571Z,106.00
2017-12-25T17:09:06.195Z,117.20
2017-12-25T17:11:33.766Z,138.53
2017-12-25T17:14:01.357Z,165.70
2017-12-25T17:16:29.050Z,108.53
2017-12-25T17:18:56.624Z,286.33
2017-12-25T17:21:24.226Z,202.33
2017-12-25T17:23:52.047Z,160.23
2017-12-25T17:26:19.866Z,101.93
2017-12-25T17:28:47.455Z,110.93
2017-12-25T17:31:15.033Z,133.60
2017-12-25T17:33:42.627Z,163.83
2017-12-25T17:36:10.227Z,135.13
2017-12-25T17:38:37.954Z,364.97
2017-12-25T17:41:05.522Z,76.90
2017-12-25T17:43:33.090Z,88.20
2017-12-25T17:46:00.661Z,195.83
2017-12-25T17:48:28.292Z,198.47
2017-12-25T17:50:56.007Z,68.03
2017-12-25T17:53:23.754Z,77.03
2017-12-25T17:55:51.495Z,72.90
2017-12-25T17:58:19.201Z,248.37
2017-12-25T18:00:47.019Z,270.20
2017-12-25T18:03:14.627Z,202.03
2017-12-25T18:05:42.453Z,209.97
2017-12-25T18:08:10.117Z,254.23
2017-12-25T18:10:37.891Z,231.27
2017-12-25T18:13:05.615Z,164.20
2017-12-25T18:15:33.420Z,165.50
2017-12-25T18:18:01.004Z,264.00
2017-12-25T18:20:28.726Z,247.33
2017-12-25T18:22:56.443Z,258.23
2017-12-25T18:25:24.016Z,308.47
2017-12-25T18:27:51.626Z,348.93
2017-12-25T18:30:19.436Z,238.23
2017-12-25T18:32:47.033Z,372.90
2017-12-25T18:35:15.629Z,185.17
2017-12-25T18:37:43.394Z,155.27
2017-12-25T18:40:10.982Z,165.13
2017-12-25T18:42:38.566Z,213.83
2017-12-25T18:45:06.190Z,389.57
2017-12-25T18:47:33.963Z,381.73
2017-12-25T18:50:01.569Z,312.23
2017-12-25T18:52:29.344Z,239.53
2017-12-25T18:54:57.710Z,196.50
2017-12-25T18:57:25.298Z,181.77
2017-12-25T18:59:52.868Z,169.33
2017-12-25T19:02:20.674Z,148.93
2017-12-25T19:04:48.494Z,141.83
2017-12-25T19:07:16.312Z,151.37
2017-12-25T19:09:43.874Z,160.07
2017-12-25T19:12:11.546Z,123.33
2017-12-25T19:14:39.265Z,112.50
2017-12-25T19:17:07.084Z,102.90
2017-12-25T19:19:34.663Z,120.93
2017-12-25T19:22:02.240Z,144.00
2017-12-25T19:24:29.829Z,147.60
2017-12-25T19:26:57.453Z,121.23
2017-12-25T19:29:25.023Z,174.67
2017-12-25T19:31:52.668Z,119.43
2017-12-25T19:34:20.267Z,134.53
2017-12-25T19:36:47.852Z,163.80
2017-12-25T19:39:15.645Z,192.57
2017-12-25T19:41:43.631Z,167.47
2017-12-25T19:44:12.155Z,85.67
2017-12-25T19:46:39.734Z,87.10
2017-12-25T19:49:07.375Z,75.73
2017-12-25T19:51:34.953Z,165.87
2017-12-25T19:54:02.525Z,133.90
2017-12-25T19:56:30.167Z,137.03
2017-12-25T19:58:58.498Z,138.13
2017-12-25T20:01:26.078Z,144.70
2017-12-25T20:03:53.829Z,225.03
2017-12-25T20:06:21.417Z,388.13
2017-12-25T20:08:48.998Z,135.00
2017-12-25T20:11:16.570Z,69.83
2017-12-25T20:13:44.301Z,99.20
2017-12-25T20:16:11.870Z,106.93
2017-12-25T20:18:39.611Z,144.83
2017-12-25T20:21:07.246Z,96.63
2017-12-25T20:23:34.815Z,105.77
2017-12-25T20:26:02.399Z,186.93
2017-12-25T20:28:29.980Z,218.50
2017-12-25T20:30:57.822Z,171.13
2017-12-25T20:33:26.447Z,149.07
2017-12-25T20:35:54.023Z,93.90
2017-12-25T20:38:21.734Z,77.00
2017-12-25T20:40:49.291Z,82.17
2017-12-25T20:43:17.021Z,94.07
2017-12-25T20:45:44.838Z,94.50
2017-12-25T20:48:13.349Z,108.83
2017-12-25T20:50:40.971Z,95.43
2017-12-25T20:53:08.524Z,78.10
2017-12-25T20:55:36.279Z,117.10
2017-12-25T20:58:03.997Z,186.63
2017-12-25T21:00:31.580Z,155.43
2017-12-25T21:02:59.367Z,160.70
2017-12-25T21:05:26.942Z,298.00
2017-12-25T21:07:54.688Z,295.40
2017-12-25T21:10:22.303Z,247.33
2017-12-25T21:12:49.874Z,194.17
2017-12-25T21:15:17.860Z,112.27
2017-12-25T21:17:45.413Z,101.17
2017-12-25T21:20:12.973Z,181.10
2017-12-25T21:22:40.571Z,149.87
2017-12-25T21:25:08.134Z,114.63
2017-12-25T21:27:35.946Z,107.67
2017-12-25T21:30:03.765Z,133.20
2017-12-25T21:32:31.371Z,374.17
2017-12-25T21:34:58.951Z,207.03
2017-12-25T21:37:26.514Z,145.30
2017-12-25T21:39:54.142Z,193.10
2017-12-25T21:42:21.725Z,183.30
2017-12-25T21:44:49.454Z,250.77
2017-12-25T21:47:17.291Z,259.67
2017-12-25T21:49:45.112Z,197.33
2017-12-25T21:52:12.746Z,163.67
2017-12-25T21:54:40.847Z,184.33
2017-12-25T21:57:08.438Z,113.13
2017-12-25T21:59:36.014Z,146.07
2017-12-25T22:02:03.585Z,123.13
2017-12-25T22:04:31.417Z,231.00
2017-12-25T22:06:58.986Z,210.53
2017-12-25T22:09:26.549Z,167.47
2017-12-25T22:11:54.137Z,126.23
2017-12-25T22:14:21.711Z,109.37
2017-12-25T22:16:49.256Z,89.60
2017-12-25T22:19:16.825Z,56.40
2017-12-25T22:21:44.423Z,50.97
2017-12-25T22:24:12.017Z,64.27
2017-12-25T22:26:39.779Z,116.30
2017-12-25T22:29:07.339Z,77.03
2017-12-25T22:31:35.114Z,69.87
2017-12-25T22:34:02.677Z,44.10
2017-12-25T22:36:30.223Z,234.53
2017-12-25T22:38:57.968Z,106.97
2017-12-25T22:41:25.539Z,55.23
2017-12-25T22:43:53.099Z,81.53
2017-12-25T22:46:20.922Z,78.47
2017-12-25T22:48:48.496Z,93.60
2017-12-25T22:51:16.066Z,89.37
2017-12-25T22:53:43.876Z,99.37
2017-12-25T22:56:11.442Z,96.27
2017-12-25T22:58:38.999Z,91.23
2017-12-25T23:01:06.710Z,76.10
2017-12-25T23:03:34.424Z,71.07
2017-12-25T23:06:02.057Z,66.03
2017-12-25T23:08:29.783Z,76.53
2017-12-25T23:10:57.335Z,75.03
2017-12-25T23:13:24.891Z,85.40
2017-12-25T23:15:52.461Z,59.80
2017-12-25T23:18:20.025Z,45.93
2017-12-25T23:20:47.680Z,41.00
2017-12-25T23:23:15.275Z,38.37
2017-12-25T23:25:42.858Z,35.77
2017-12-25T23:28:10.462Z,70.57
2017-12-25T23:30:38.031Z,68.80
2017-12-25T23:33:05.602Z,65.10
2017-12-25T23:35:33.169Z,62.63
2017-12-25T23:38:00.746Z,52.70
2017-12-25T23:40:28.310Z,41.60
2017-12-25T23:42:55.877Z,36.90
2017-12-25T23:45:23.649Z,36.90
2017-12-25T23:47:51.465Z,29.50
2017-12-25T23:50:19.187Z,29.80
2017-12-25T23:52:47.006Z,28.37
2017-12-25T23:55:14.578Z,32.53
2017-12-25T23:57:42.134Z,27.43
